createdAt,value
2022-09-26T00:00:55.340Z,1.2
2022-09-26T00:02:59.291Z,5.8
2022-09-26T00:05:03.350Z,2.2
2022-09-26T00:07:10.406Z,4.9
2022-09-26T00:09:14.585Z,2.9
2022-09-26T00:11:18.516Z,3.7
2022-09-26T00:13:22.583Z,5.4
2022-09-26T00:15:26.645Z,10.8
2022-09-26T00:17:30.676Z,4.8
2022-09-26T00:19:34.734Z,7.5
2022-09-26T00:21:41.788Z,11.3
2022-09-26T00:23:45.859Z,3.5
2022-09-26T00:25:49.911Z,6
2022-09-26T00:27:53.971Z,3
2022-09-26T00:29:58.006Z,7.2
2022-09-26T00:32:02.074Z,5.8
2022-09-26T00:34:06.112Z,2.1
2022-09-26T00:36:13.187Z,2.8
2022-09-26T00:38:17.244Z,4.9
2022-09-26T00:40:21.511Z,13.6
2022-09-26T00:42:45.700Z,3.8
2022-09-26T00:49:00.872Z,7.3
2022-09-26T00:53:09.006Z,4.3
2022-09-26T00:55:13.066Z,5.7
2022-09-26T00:57:17.127Z,3.1
2022-09-26T00:59:21.166Z,3.4
2022-09-26T01:01:25.403Z,3.7
2022-09-26T01:03:32.317Z,5.1
2022-09-26T01:05:36.367Z,5.1
2022-09-26T01:07:40.423Z,6.8
2022-09-26T01:09:44.463Z,4.7
2022-09-26T01:11:48.525Z,3.2
2022-09-26T01:13:52.566Z,11.4
2022-09-26T01:15:56.678Z,7.4
2022-09-26T01:18:03.702Z,13.1
2022-09-26T01:20:07.754Z,6.9
2022-09-26T01:22:11.823Z,5.2
2022-09-26T01:24:15.880Z,4.8
2022-09-26T01:26:19.932Z,12.7
2022-09-26T01:28:23.978Z,8.9
2022-09-26T01:30:28.136Z,6.3
2022-09-26T01:32:35.105Z,6.4
2022-09-26T01:34:39.177Z,7.8
2022-09-26T01:36:43.230Z,7.3
2022-09-26T01:39:50.799Z,5.1
2022-09-26T01:41:54.868Z,7.8
2022-09-26T01:54:22.187Z,4.2
2022-09-26T01:58:30.312Z,9.2
2022-09-26T02:00:37.372Z,9.5
2022-09-26T02:02:41.461Z,3.2
2022-09-26T02:04:45.477Z,2.3
2022-09-26T02:08:53.588Z,3.3
2022-09-26T02:10:57.646Z,7.5
2022-09-26T02:13:01.687Z,10.7
2022-09-26T02:15:08.760Z,8.3
2022-09-26T02:17:12.798Z,8.4
2022-09-26T02:19:16.867Z,13.3
2022-09-26T02:21:20.920Z,5
2022-09-26T02:23:24.984Z,5.9
2022-09-26T02:27:33.079Z,8.2
2022-09-26T02:29:40.144Z,8.6
2022-09-26T02:31:44.295Z,5
2022-09-26T02:33:48.261Z,6.9
2022-09-26T02:34:51.793Z,10.8
2022-09-26T02:36:55.838Z,11.3
2022-09-26T02:38:59.912Z,8.9
2022-09-26T02:41:03.943Z,7.6
2022-09-26T02:43:11.163Z,10.8
2022-09-26T02:45:15.076Z,5.8
2022-09-26T02:47:19.124Z,7.4
2022-09-26T02:49:23.184Z,6.4
2022-09-26T02:51:27.251Z,7.8
2022-09-26T02:53:31.306Z,6.2
2022-09-26T02:55:35.346Z,5.8
2022-09-26T02:57:42.427Z,8.5
2022-09-26T02:59:46.473Z,9.1
2022-09-26T03:01:50.541Z,15.2
2022-09-26T03:03:54.599Z,15.7
2022-09-26T03:08:02.697Z,10.8
2022-09-26T03:10:06.770Z,8.5
2022-09-26T03:12:13.829Z,14.4
2022-09-26T03:14:17.859Z,7.3
2022-09-26T03:16:22.021Z,10.1
2022-09-26T03:18:25.953Z,18.9
2022-09-26T03:20:30.012Z,6.2
2022-09-26T03:22:34.052Z,7.3
2022-09-26T03:24:38.094Z,9.2
2022-09-26T03:26:45.166Z,8.5
2022-09-26T03:28:49.242Z,10.7
2022-09-26T03:30:53.275Z,11.1
2022-09-26T03:31:56.895Z,18.6
2022-09-26T03:34:00.858Z,8.9
2022-09-26T03:36:04.909Z,8.8
2022-09-26T03:38:12.431Z,14.6
2022-09-26T03:40:16.107Z,9.6
2022-09-26T03:42:20.063Z,8.1
2022-09-26T03:44:24.218Z,6.5
2022-09-26T03:46:28.200Z,11.9
2022-09-26T03:48:32.174Z,19.2
2022-09-26T03:50:36.223Z,14.3
2022-09-26T03:52:40.250Z,8.3
2022-09-26T03:54:47.432Z,12.2
2022-09-26T03:56:51.360Z,9.1
2022-09-26T03:58:55.470Z,9.1
2022-09-26T04:00:59.544Z,8.6
2022-09-26T04:03:03.530Z,19.2
2022-09-26T04:05:07.550Z,8.1
2022-09-26T04:07:11.612Z,14.1
2022-09-26T04:09:19.109Z,16.3
2022-09-26T04:11:22.705Z,8.5
2022-09-26T04:13:49.996Z,9.4
2022-09-26T04:15:30.755Z,17.1
2022-09-26T04:17:34.805Z,6.8
2022-09-26T04:19:38.865Z,11.1
2022-09-26T04:21:42.940Z,11.8
2022-09-26T04:25:54.013Z,7.6
2022-09-26T04:27:58.044Z,18.8
2022-09-26T04:30:22.545Z,8.7
2022-09-26T04:32:26.582Z,14.9
2022-09-26T04:34:30.634Z,18.5
2022-09-26T04:40:47.391Z,9.7
2022-09-26T04:42:51.308Z,13.5
2022-09-26T04:44:55.348Z,9
2022-09-26T04:46:59.409Z,9.8
2022-09-26T04:51:10.477Z,11.6
2022-09-26T04:53:14.509Z,8.6
2022-09-26T04:55:18.549Z,9.1
2022-09-26T04:57:22.565Z,13.9
2022-09-26T05:01:30.721Z,9.4
2022-09-26T05:03:34.679Z,5.4
2022-09-26T05:05:41.750Z,7
2022-09-26T05:07:45.777Z,11.1
2022-09-26T05:09:49.816Z,7
2022-09-26T05:11:53.871Z,6.3
2022-09-26T05:13:57.942Z,5.8
2022-09-26T05:16:01.970Z,6.7
2022-09-26T05:18:05.954Z,9.8
2022-09-26T05:20:13.009Z,5.5
2022-09-26T05:22:17.056Z,5.8
2022-09-26T05:24:21.094Z,5.9
2022-09-26T05:25:24.616Z,9.3
2022-09-26T05:29:32.700Z,3.7
2022-09-26T05:37:51.846Z,3.6
2022-09-26T05:39:55.879Z,4.3
2022-09-26T05:41:59.971Z,4.5
2022-09-26T05:44:03.960Z,7.6
2022-09-26T05:48:15.023Z,5
2022-09-26T05:50:19.056Z,7.2
2022-09-26T05:52:23.213Z,15
2022-09-26T05:54:27.131Z,5
2022-09-26T05:56:31.152Z,10.6
2022-09-26T05:58:35.176Z,2.6
2022-09-26T06:00:39.253Z,3.4
2022-09-26T06:02:46.246Z,4
2022-09-26T06:04:50.270Z,3.8
2022-09-26T06:06:54.302Z,5.6
2022-09-26T06:08:58.349Z,9.5
2022-09-26T06:11:02.340Z,15.6
2022-09-26T06:13:06.369Z,6.4
2022-09-26T06:15:10.415Z,4.2
2022-09-26T06:17:17.440Z,4
2022-09-26T06:19:23.193Z,16.4
2022-09-26T06:21:25.488Z,6.8
2022-09-26T06:22:29.007Z,3.3
2022-09-26T06:24:33.038Z,3.4
2022-09-26T06:26:37.065Z,4.5
2022-09-26T06:28:41.089Z,2.1
2022-09-26T06:30:48.140Z,17
2022-09-26T06:32:52.177Z,7.3
2022-09-26T06:34:56.200Z,3.9
2022-09-26T06:37:00.215Z,5.5
2022-09-26T06:39:04.270Z,5.2
2022-09-26T06:43:12.292Z,7.3
2022-09-26T06:47:23.397Z,2.1
2022-09-26T06:51:31.449Z,5.1
2022-09-26T06:59:50.583Z,3.9
2022-09-26T07:01:54.813Z,2.3
2022-09-26T07:03:58.655Z,14.8
2022-09-26T07:06:20.617Z,4.1
2022-09-26T07:08:06.720Z,3.1
2022-09-26T07:10:10.761Z,4.5
2022-09-26T07:12:15.725Z,10.5
2022-09-26T07:14:21.821Z,2.9
2022-09-26T07:16:25.890Z,3.8
2022-09-26T07:18:29.889Z,3
2022-09-26T07:19:33.419Z,2.7
2022-09-26T07:21:37.460Z,3.9
2022-09-26T07:23:41.514Z,3.7
2022-09-26T07:25:45.545Z,4.5
2022-09-26T07:27:52.609Z,3.7
2022-09-26T07:29:56.616Z,4.4
2022-09-26T07:32:00.696Z,3.9
2022-09-26T07:34:04.836Z,9
2022-09-26T07:36:08.731Z,7
2022-09-26T07:38:12.782Z,2.4
2022-09-26T07:40:16.912Z,2.5
2022-09-26T07:46:32.068Z,3.8
2022-09-26T07:48:35.999Z,4.3
2022-09-26T07:50:40.028Z,2.8
2022-09-26T07:52:44.086Z,5.6
2022-09-26T08:03:07.356Z,8.3
2022-09-26T08:05:11.371Z,7.5
2022-09-26T08:11:26.528Z,13
2022-09-26T08:13:30.563Z,2.1
2022-09-26T08:15:34.623Z,4.2
2022-09-26T08:17:59.132Z,6
2022-09-26T08:20:03.179Z,7
2022-09-26T08:22:07.211Z,2.6
2022-09-26T08:24:14.440Z,1.3
2022-09-26T08:26:18.321Z,2.1
2022-09-26T08:28:22.372Z,12.4
2022-09-26T08:30:26.434Z,7.5
2022-09-26T08:32:30.507Z,6.6
2022-09-26T08:34:34.536Z,5.2
2022-09-26T08:36:38.611Z,5
2022-09-26T08:38:45.685Z,3.9
2022-09-26T08:40:49.843Z,2.4
2022-09-26T08:42:53.792Z,1.2
2022-09-26T08:44:57.852Z,5
2022-09-26T08:47:01.999Z,2.8
2022-09-26T08:49:05.998Z,5.4
2022-09-26T08:51:10.053Z,4.9
2022-09-26T09:01:33.450Z,3.5
2022-09-26T09:03:37.426Z,7.5
2022-09-26T09:09:52.669Z,3.7
2022-09-26T09:13:00.260Z,2.3
2022-09-26T09:15:24.165Z,3.4
2022-09-26T09:17:08.393Z,2.4
2022-09-26T09:19:12.476Z,3.9
2022-09-26T09:21:19.530Z,6.1
2022-09-26T09:23:23.660Z,8
2022-09-26T09:31:39.934Z,13.1
2022-09-26T09:35:51.040Z,3.2
2022-09-26T09:37:55.089Z,2.9
2022-09-26T09:39:59.157Z,12.5
2022-09-26T09:42:03.242Z,10.6
2022-09-26T09:46:11.455Z,9.3
2022-09-26T09:50:22.507Z,3.6
2022-09-26T09:52:26.561Z,4.4
2022-09-26T09:54:30.652Z,2.5
2022-09-26T09:56:34.662Z,3.7
2022-09-26T09:58:38.740Z,4.2
2022-09-26T10:00:42.794Z,11.9
2022-09-26T10:09:35.944Z,3.7
2022-09-26T10:10:05.578Z,4.9
2022-09-26T10:14:13.670Z,6.1
2022-09-26T10:16:17.861Z,2.1
2022-09-26T10:18:26.131Z,5.7
2022-09-26T10:20:28.867Z,7.9
2022-09-26T10:22:32.922Z,1.6
2022-09-26T10:24:36.987Z,1.9
2022-09-26T10:26:41.017Z,5.8
2022-09-26T10:28:45.145Z,5.8
2022-09-26T10:30:49.190Z,4.5
2022-09-26T10:32:56.730Z,5.8
2022-09-26T10:35:00.277Z,4.9
2022-09-26T10:37:04.354Z,11
2022-09-26T10:39:09.982Z,10.4
2022-09-26T10:41:13.994Z,4.2
2022-09-26T10:43:18.080Z,10.1
2022-09-26T10:45:22.102Z,2.8
2022-09-26T10:47:29.228Z,2.5
2022-09-26T10:49:33.256Z,5
2022-09-26T10:51:37.323Z,2.6
2022-09-26T10:53:41.451Z,5.9
2022-09-26T10:55:45.432Z,3.5
2022-09-26T10:57:49.496Z,3.5
2022-09-26T10:59:53.544Z,4.1
2022-09-26T11:02:00.811Z,3.9
2022-09-26T11:04:04.801Z,4.2
2022-09-26T11:06:08.753Z,6.3
2022-09-26T11:07:12.282Z,6
2022-09-26T11:13:24.446Z,6.8
2022-09-26T11:17:35.590Z,4.6
2022-09-26T11:21:43.703Z,4.3
2022-09-26T11:23:47.770Z,7.5
2022-09-26T11:27:55.874Z,1.7
2022-09-26T11:30:02.967Z,1.5
2022-09-26T11:34:11.075Z,5.4
2022-09-26T11:42:27.300Z,3.5
2022-09-26T11:50:46.594Z,2.8
2022-09-26T11:52:50.615Z,2.9
2022-09-26T11:59:05.793Z,2.5
2022-09-26T12:01:09.837Z,3.8
2022-09-26T12:03:14.067Z,3.4
2022-09-26T12:05:32.194Z,2.2
2022-09-26T12:07:36.260Z,3.6
2022-09-26T12:09:40.306Z,2.3
2022-09-26T12:11:47.392Z,3.7
2022-09-26T12:13:51.441Z,7.2
2022-09-26T12:15:55.544Z,6.1
2022-09-26T12:17:59.588Z,1.7
2022-09-26T12:20:03.628Z,7.2
2022-09-26T12:22:07.684Z,1
2022-09-26T12:24:11.763Z,5.9
2022-09-26T12:26:18.803Z,1.6
2022-09-26T12:32:31.006Z,1.6
2022-09-26T12:34:35.067Z,6.5
2022-09-26T12:38:43.190Z,4.1
2022-09-26T12:40:50.308Z,4.4
2022-09-26T12:42:54.326Z,7.1
2022-09-26T12:44:58.390Z,2
2022-09-26T12:47:02.447Z,1.9
2022-09-26T12:49:06.535Z,1.6
2022-09-26T12:51:10.572Z,5.1
2022-09-26T12:53:14.620Z,3.1
2022-09-26T12:55:21.696Z,2.5
2022-09-26T12:57:25.761Z,9.1
2022-09-26T12:59:29.826Z,1.8
2022-09-26T13:00:33.364Z,1.3
2022-09-26T13:02:37.526Z,3
2022-09-26T13:04:41.469Z,2.9
2022-09-26T13:07:02.186Z,1.3
2022-09-26T13:08:52.606Z,1.5
2022-09-26T13:10:56.669Z,5.5
2022-09-26T13:13:00.746Z,1.8
2022-09-26T13:15:04.804Z,1.9
2022-09-26T13:17:08.879Z,2.2
2022-09-26T13:19:12.917Z,1.7
2022-09-26T13:21:16.986Z,2.3
2022-09-26T13:23:24.056Z,2.3
2022-09-26T13:25:28.129Z,3.1
2022-09-26T13:27:32.198Z,2.3
2022-09-26T13:29:36.266Z,3.3
2022-09-26T13:31:40.444Z,1.6
2022-09-26T13:35:48.941Z,3.2
2022-09-26T13:38:00.676Z,7
2022-09-26T13:40:00.307Z,2.9
2022-09-26T13:48:16.325Z,3.7
2022-09-26T13:54:31.561Z,3.8
2022-09-26T13:57:39.153Z,1.4
2022-09-26T14:03:51.355Z,0.9
2022-09-26T14:05:58.474Z,3.9
2022-09-26T14:08:02.523Z,0.5
2022-09-26T14:10:06.606Z,1
2022-09-26T14:12:10.640Z,0.7
2022-09-26T14:14:14.860Z,0.8
2022-09-26T14:18:22.865Z,0.3
2022-09-26T14:20:29.935Z,1.8
2022-09-26T14:22:34.002Z,2
2022-09-26T14:24:38.074Z,0.8
2022-09-26T14:26:42.116Z,0.7
2022-09-26T14:28:46.176Z,1.1
2022-09-26T14:32:54.309Z,1.6
2022-09-26T14:35:01.400Z,1
2022-09-26T14:37:05.464Z,7.1
2022-09-26T14:43:17.709Z,4.1
2022-09-26T14:45:21.728Z,0.6
2022-09-26T14:47:25.779Z,1.5
2022-09-26T14:49:32.866Z,1.4
2022-09-26T14:53:41.019Z,1.5
2022-09-26T14:54:44.582Z,1.3
2022-09-26T14:58:52.700Z,0.9
2022-09-26T15:00:56.782Z,1
2022-09-26T15:03:03.895Z,1.3
2022-09-26T15:05:07.925Z,1.1
2022-09-26T15:07:11.989Z,3.2
2022-09-26T15:09:16.056Z,2.3
2022-09-26T15:11:20.123Z,1.5
2022-09-26T15:13:24.192Z,1.8
2022-09-26T15:15:28.318Z,4.5
2022-09-26T15:17:35.342Z,7.1
2022-09-26T15:19:39.411Z,3.6
2022-09-26T15:21:43.507Z,7.5
2022-09-26T15:25:51.639Z,3.7
2022-09-26T15:27:55.698Z,5.3
2022-09-26T15:29:59.767Z,11.1
2022-09-26T15:32:06.849Z,11.1
2022-09-26T15:36:15.003Z,8.7
2022-09-26T15:38:19.064Z,3.9
2022-09-26T15:40:23.264Z,13.5
2022-09-26T15:42:27.203Z,5
2022-09-26T15:44:31.259Z,5.6
2022-09-26T15:46:38.451Z,3.3
2022-09-26T15:48:42.405Z,2.7
2022-09-26T15:50:46.483Z,2.8
2022-09-26T15:53:05.029Z,4.8
2022-09-26T15:55:09.227Z,6.6
2022-09-26T15:57:13.161Z,3.8
2022-09-26T15:59:20.259Z,4.7
2022-09-26T16:01:24.419Z,7.3
2022-09-26T16:03:28.406Z,8.5
2022-09-26T16:11:44.677Z,3.8
2022-09-26T16:13:51.744Z,6.2
2022-09-26T16:20:03.966Z,4.1
2022-09-26T16:22:08.032Z,4.7
2022-09-26T16:26:16.156Z,6.7
2022-09-26T16:28:23.247Z,4.7
2022-09-26T16:30:27.301Z,4.2
2022-09-26T16:40:49.251Z,5.7
2022-09-26T16:42:56.244Z,7.9
2022-09-26T16:47:04.385Z,5.8
2022-09-26T16:48:07.911Z,9.1
2022-09-26T16:50:11.966Z,11
2022-09-26T16:52:16.041Z,12.5
2022-09-26T16:54:20.103Z,10.6
2022-09-26T16:56:27.177Z,6.7
2022-09-26T16:58:31.236Z,8
2022-09-26T17:00:35.302Z,14.2
2022-09-26T17:02:39.480Z,8.3
2022-09-26T17:04:43.443Z,13.8
2022-09-26T17:06:47.510Z,8.7
2022-09-26T17:08:51.572Z,8.9
2022-09-26T17:10:58.657Z,17.6
2022-09-26T17:13:02.713Z,9.3
2022-09-26T17:15:06.793Z,9.7
2022-09-26T17:19:14.918Z,14
2022-09-26T17:21:18.981Z,14.7
2022-09-26T17:23:39.447Z,15.5
2022-09-26T17:25:30.101Z,12.2
2022-09-26T17:27:34.230Z,10.2
2022-09-26T17:29:38.221Z,20.6
2022-09-26T17:31:42.294Z,9
2022-09-26T17:33:46.341Z,8.4
2022-09-26T17:35:50.411Z,19.1
2022-09-26T17:37:54.483Z,15.9
2022-09-26T17:42:05.613Z,126.6
2022-09-26T17:44:09.675Z,126.4
2022-09-26T17:45:13.201Z,131
2022-09-26T17:47:17.277Z,132.3
2022-09-26T17:49:21.328Z,136.7
2022-09-26T17:51:25.411Z,137.5
2022-09-26T17:53:32.894Z,139.9
2022-09-26T17:55:36.573Z,137
2022-09-26T17:59:44.677Z,125.6
2022-09-26T18:01:48.790Z,119.3
2022-09-26T18:03:52.811Z,106.8
2022-09-26T18:05:56.892Z,91.1
2022-09-26T18:08:03.985Z,72.3
2022-09-26T18:10:08.046Z,59
2022-09-26T18:12:12.117Z,48.9
2022-09-26T18:14:16.172Z,40.9
2022-09-26T18:16:20.305Z,33.7
2022-09-26T18:18:24.338Z,25.8
2022-09-26T18:20:28.414Z,23.9
2022-09-26T18:24:39.572Z,23.6
2022-09-26T18:26:43.616Z,19.9
2022-09-26T18:28:47.678Z,19.8
2022-09-26T18:30:56.911Z,24
2022-09-26T18:32:55.829Z,19.3
2022-09-26T18:34:59.897Z,28.4
2022-09-26T18:37:06.969Z,21.1
2022-09-26T18:39:11.039Z,19.5
2022-09-26T18:41:15.116Z,35.4
2022-09-26T18:42:18.642Z,21.2
2022-09-26T18:44:22.712Z,25.1
2022-09-26T18:46:26.830Z,21.3
2022-09-26T18:48:30.840Z,23.8
2022-09-26T18:54:46.030Z,33.3
2022-09-26T18:56:50.069Z,37
2022-09-26T18:58:54.146Z,38.2
2022-09-26T19:00:58.209Z,42.5
2022-09-26T19:03:02.339Z,40.1
2022-09-26T19:05:09.321Z,51.1
2022-09-26T19:07:17.312Z,51
2022-09-26T19:09:17.473Z,48
2022-09-26T19:13:27.675Z,58.4
2022-09-26T19:15:29.665Z,58.7
2022-09-26T19:17:33.685Z,57.3
2022-09-26T19:19:40.735Z,65.4
2022-09-26T19:21:44.794Z,68.2
2022-09-26T19:25:52.936Z,70
2022-09-26T19:27:56.940Z,70.5
2022-09-26T19:30:00.990Z,75.1
2022-09-26T19:40:48.624Z,92.1
2022-09-26T19:42:48.625Z,92.8
2022-09-26T19:44:52.665Z,95
2022-09-26T19:46:59.755Z,104.2
2022-09-26T19:51:07.846Z,101.7
2022-09-26T19:53:11.899Z,100.5
2022-09-26T19:55:16.002Z,107
2022-09-26T19:59:27.205Z,92.6
2022-09-26T20:01:31.154Z,104.8
2022-09-26T20:03:35.197Z,103
2022-09-26T20:05:39.264Z,99.4
2022-09-26T20:07:43.307Z,112.1
2022-09-26T20:09:47.363Z,107
2022-09-26T20:13:55.462Z,110.6
2022-09-26T20:18:06.546Z,88.9
2022-09-26T20:20:10.635Z,92.9
2022-09-26T20:22:14.675Z,99.6
2022-09-26T20:24:18.697Z,105.1
2022-09-26T20:26:22.761Z,102
2022-09-26T20:28:26.820Z,91.6
2022-09-26T20:30:33.917Z,100.5
2022-09-26T20:32:37.908Z,80.3
2022-09-26T20:34:41.944Z,73.4
2022-09-26T20:35:45.482Z,80.6
2022-09-26T20:37:49.553Z,73
2022-09-26T20:39:53.587Z,69.8
2022-09-26T20:41:57.632Z,64.9
2022-09-26T20:44:04.684Z,46.9
2022-09-26T20:46:08.847Z,46.3
2022-09-26T20:48:12.759Z,42.2
2022-09-26T20:50:16.809Z,46.4
2022-09-26T20:52:20.889Z,48.6
2022-09-26T20:54:24.884Z,46.6
2022-09-26T20:56:28.960Z,54.5
2022-09-26T20:58:36.001Z,53.3
2022-09-26T21:00:40.046Z,51.1
2022-09-26T21:02:44.160Z,42.9
2022-09-26T21:04:48.129Z,49.2
2022-09-26T21:06:52.156Z,45.2
2022-09-26T21:08:56.189Z,47.9
2022-09-26T21:11:00.257Z,34.5
2022-09-26T21:17:15.524Z,44.8
2022-09-26T21:19:19.399Z,39.1
2022-09-26T21:21:23.412Z,40.5
2022-09-26T21:23:27.468Z,40.8
2022-09-26T21:25:31.497Z,44.6
2022-09-26T21:27:38.524Z,44.2
2022-09-26T21:29:42.570Z,45
2022-09-26T21:32:50.177Z,42.6
2022-09-26T21:34:54.166Z,42.5
2022-09-26T21:36:58.208Z,43.6
2022-09-26T21:39:02.246Z,41.9
2022-09-26T21:41:09.260Z,40.7
2022-09-26T21:43:13.311Z,42.4
2022-09-26T21:45:17.329Z,40.5
2022-09-26T21:47:21.351Z,41.1
2022-09-26T21:49:25.401Z,42.7
2022-09-26T21:51:29.414Z,42.5
2022-09-26T21:53:33.435Z,46.4
2022-09-26T21:55:40.485Z,49.3
2022-09-26T21:57:44.529Z,47.3
2022-09-26T21:59:48.535Z,44.2
2022-09-26T22:01:52.652Z,47.8
2022-09-26T22:03:56.577Z,50.1
2022-09-26T22:06:06.221Z,52
2022-09-26T22:08:04.629Z,48.8
2022-09-26T22:10:11.683Z,51.9
2022-09-26T22:12:15.690Z,50.7
2022-09-26T22:14:19.714Z,51.1
2022-09-26T22:16:23.808Z,54.3
2022-09-26T22:18:27.780Z,51.4
2022-09-26T22:20:31.782Z,55
2022-09-26T22:22:35.822Z,59.4
2022-09-26T22:24:42.841Z,56.4
2022-09-26T22:26:46.861Z,60.7
2022-09-26T22:28:50.911Z,57.5
2022-09-26T22:29:54.414Z,60.7
2022-09-26T22:31:58.429Z,59.3
2022-09-26T22:34:04.067Z,56.2
2022-09-26T22:36:08.027Z,57.3
2022-09-26T22:38:15.055Z,66.5
2022-09-26T22:42:23.120Z,64.1
2022-09-26T22:46:31.241Z,65.8
2022-09-26T22:48:35.173Z,64.3
2022-09-26T22:50:39.190Z,69.5
2022-09-26T22:52:46.224Z,70.3
2022-09-26T22:54:50.240Z,70.2
2022-09-26T22:56:54.266Z,71.1
2022-09-26T22:58:58.299Z,71.6
2022-09-26T23:01:02.331Z,66.9
2022-09-26T23:03:06.320Z,68.9
2022-09-26T23:05:10.332Z,69.7
2022-09-26T23:07:17.393Z,71.2
2022-09-26T23:09:21.401Z,70.8
2022-09-26T23:13:29.421Z,70.5
2022-09-26T23:15:33.448Z,69.5
2022-09-26T23:17:37.478Z,63.5
2022-09-26T23:19:41.495Z,73.8
2022-09-26T23:21:48.531Z,75.4
2022-09-26T23:23:52.548Z,64.1
2022-09-26T23:25:56.546Z,68.9
2022-09-26T23:28:20.941Z,87.6
2022-09-26T23:30:25.015Z,82.7
2022-09-26T23:32:28.980Z,84.9
2022-09-26T23:34:35.997Z,87.1
2022-09-26T23:36:40.031Z,79.9
2022-09-26T23:38:44.047Z,89.4
2022-09-26T23:40:48.132Z,86.3
2022-09-26T23:42:52.080Z,80.8
2022-09-26T23:44:56.086Z,71.2
2022-09-26T23:47:00.139Z,70.3
2022-09-26T23:49:07.135Z,68.9
2022-09-26T23:51:11.170Z,64.7
2022-09-26T23:53:15.192Z,60.4
2022-09-26T23:55:19.224Z,48.3
2022-09-26T23:57:23.234Z,51.1
2022-09-26T23:59:27.252Z,46.6
